Indian Creek, Iowa
Current Conditions -  °F | °C
As of 6:52 PM on Sunday 23 Nov 2014 (Local Time) from KCID Reporting Station
Moderate Fog Moderate Fog  
Wind Chill: 46°   Ceiling: 200
Heat Index: 48°   Visibility: 0.25mi
Dew Point: 48°   Wind: 5mph
Humidity: 100%   Direction: 310°NW
Pressure: 29.26"   Gusts: NA
Location:  42.0672°N, 91.5782°W
Report Text: KCID 240052Z 31004KT 1/4SM FG VV002 09/09 A2926 RMK AO2 RAE09 SLP911 P0000 T00890089
Loading
Personal Weather Stations






























Interactive Weather Map New forecast layout! Learn more

10-Day Weather Forecast

Advertisements
Track Severe Weather on mobile